Página principal
METAR-TAF:

METAR-TAF

Aeroportos :

Aeroporto Internacional de Tóquio

Tóquio-Haneda, Japão

latitude: 35-33N, longitude: 139-47E, altura: 5 m

Observação actual do tempo

O boletim foi feito há 29 minutos, às 09:00 UTC
Vento 16 kt de sul
Temperatura 23°C
Humidade 78%
Pressão 1010 hPa
Visibilidade 10 km ou mais
Poucas nuvensa uma altura de 3500 ft
Nuvens dispersas

METAR: RJTT 270900Z 17016KT 9999 FEW035 SCT/// 23/19 Q1010 NOSIG RMK 1CU035 A2984

Hora: 18:29 (09:29 UTC)

Previsão

O boletim foi feito há 4 horas e 24 minutos, às 05:05 UTC
Previsão válida de 27 às 06 UTC a 28 às 12 UTC
Vento 14 kt de sul
Visibilidade 10 km ou mais
Poucas nuvensa uma altura de 2000 ft
Tornando-se
de 27 às 10 UTC a 27 às 12 UTC
Vento 8 kt de es-sudeste
Tornando-se
de 27 às 21 UTC a 28 às 00 UTC
Vento 10 kt de sul

TAF: RJTT 270505Z 2706/2812 18014KT 9999 FEW020 BECMG 2710/2712 12008KT BECMG 2721/2800 19010KT

Observações e previsões do tempo de mais de 4000 aeroportos (mensagens METAR e TAF).

As estações disponíveis são os pontos amarelos e vermelhos sobre o mapa.

Mova o rato sobre o mapa para ver o nome da estação.

Depois clique no ponto para visualizar as observações e previsões meteorológicas.

Para alterar o mapa : clique nos botões verdes com uma cruz preta para aumentar o zoom; no botão verde com uma pitada de zoom; ou nas setas verdes para mapas adjacentes.


METAR-TAF: